Time;durP1;ratioP1;P1;durP2;ratioP2;P2;SDS_P1;SDS_P2;PMS_P1;PMS_P2;Temp;Humidity;BMP_temperature;BMP_pressure;BME280_temperature;BME280_humidity;BME280_pressure;Samples;Min_cycle;Max_cycle;Signal;HPM_P1;HPM_P2
2022/01/23 00:00:07;;;;;;;51.75;34.05;;;6.50;99.90;;;;;;5012020;28;20018;-47
2022/01/23 00:02:34;;;;;;;51.20;34.78;;;6.60;99.90;;;;;;5010122;28;20027;-47
2022/01/23 00:05:06;;;;;;;54.03;34.78;;;6.60;99.90;;;;;;5011776;28;20053;-47
2022/01/23 00:07:33;;;;;;;56.13;36.17;;;6.60;99.90;;;;;;5011575;28;20030;-47
2022/01/23 00:09:59;;;;;;;52.17;35.15;;;6.60;99.90;;;;;;5011784;28;20027;-47
2022/01/23 00:12:27;;;;;;;59.10;36.55;;;6.60;99.90;;;;;;5010093;28;20037;-47
2022/01/23 00:17:37;;;;;;;52.53;34.97;;;6.60;99.90;;;;;;5011234;28;20121;-47
2022/01/23 00:20:06;;;;;;;56.13;36.40;;;6.50;99.90;;;;;;5010204;28;20113;-48
2022/01/23 00:22:43;;;;;;;56.38;36.53;;;6.50;99.90;;;;;;5011384;28;20510;-47
2022/01/23 00:30:42;;;;;;;58.28;36.90;;;6.60;99.90;;;;;;5011219;28;20391;-47
2022/01/23 00:33:09;;;;;;;62.25;38.20;;;6.60;99.90;;;;;;5011460;28;20022;-47
2022/01/23 00:35:37;;;;;;;59.38;37.50;;;6.60;99.90;;;;;;5011168;28;20018;-46
2022/01/23 00:38:04;;;;;;;57.17;37.28;;;6.60;99.90;;;;;;5010800;28;20053;-47
2022/01/23 00:40:31;;;;;;;62.58;38.85;;;6.60;99.90;;;;;;5011246;28;20108;-47
2022/01/23 00:42:58;;;;;;;60.72;39.05;;;6.50;99.90;;;;;;5011037;28;20110;-47
2022/01/23 00:45:32;;;;;;;61.33;39.92;;;6.40;99.90;;;;;;5011357;28;20042;-47
2022/01/23 00:48:04;;;;;;;58.75;37.05;;;6.50;99.90;;;;;;5011124;28;20021;-47
2022/01/23 00:50:33;;;;;;;63.17;39.17;;;6.50;99.90;;;;;;5010601;28;20511;-47
2022/01/23 00:52:59;;;;;;;66.38;40.50;;;6.40;99.90;;;;;;5010689;28;20156;-47
2022/01/23 00:55:24;;;;;;;73.63;41.50;;;6.30;99.90;;;;;;5011069;28;20034;-47
2022/01/23 00:57:50;;;;;;;65.85;40.70;;;6.30;99.90;;;;;;5011604;28;20033;-47
2022/01/23 01:00:16;;;;;;;68.18;40.95;;;6.30;99.90;;;;;;5011219;28;20056;-47
2022/01/23 01:02:42;;;;;;;63.80;41.80;;;6.30;99.90;;;;;;5011257;28;20440;-47
2022/01/23 01:05:08;;;;;;;62.65;39.03;;;6.30;99.90;;;;;;5010873;28;20468;-47
2022/01/23 01:07:34;;;;;;;65.18;40.83;;;6.30;99.90;;;;;;5009395;28;20022;-46
2022/01/23 01:10:06;;;;;;;61.83;39.95;;;6.30;99.90;;;;;;5010691;28;20372;-47
2022/01/23 01:12:52;;;;;;;65.68;41.45;;;6.20;99.90;;;;;;5010979;28;20544;-46
2022/01/23 01:31:26;;;;;;;65.40;40.15;;;6.30;99.90;;;;;;5010717;28;20037;-47
2022/01/23 01:38:47;;;;;;;65.45;41.83;;;6.40;99.90;;;;;;5010162;28;20021;-47
2022/01/23 01:41:14;;;;;;;73.72;42.13;;;6.30;99.90;;;;;;5010741;28;20129;-47
2022/01/23 01:43:40;;;;;;;72.72;43.35;;;6.20;99.90;;;;;;5011181;28;20033;-47
2022/01/23 01:46:06;;;;;;;75.18;43.40;;;6.20;99.90;;;;;;5010315;28;20479;-47
2022/01/23 01:48:32;;;;;;;71.45;43.35;;;6.20;99.90;;;;;;5011305;28;20265;-48
2022/01/23 01:50:59;;;;;;;67.57;41.88;;;6.30;99.90;;;;;;5010370;28;20470;-48
2022/01/23 01:53:25;;;;;;;67.25;42.60;;;6.40;99.90;;;;;;5010732;28;20067;-47
2022/01/23 01:55:54;;;;;;;67.05;41.90;;;6.40;99.90;;;;;;5010029;28;20038;-47
2022/01/23 02:01:10;;;;;;;66.93;40.85;;;6.30;99.90;;;;;;5010762;28;20294;-47
2022/01/23 02:08:48;;;;;;;65.40;40.90;;;6.10;99.90;;;;;;5010675;28;20040;-47
2022/01/23 02:11:22;;;;;;;71.85;42.25;;;6.10;99.90;;;;;;5010317;28;20026;-47
2022/01/23 02:13:55;;;;;;;65.95;41.78;;;6.20;99.90;;;;;;5010630;28;20030;-47
2022/01/23 02:54:53;;;;;;;67.65;41.38;;;6.30;99.90;;;;;;5013357;28;20069;-47
2022/01/23 02:57:37;;;;;;;65.88;41.38;;;6.20;99.90;;;;;;5013354;28;20084;-47
2022/01/23 03:00:12;;;;;;;68.05;40.08;;;6.10;99.90;;;;;;5013171;28;20072;-47
2022/01/23 03:02:44;;;;;;;69.25;42.70;;;6.00;99.90;;;;;;5013071;28;20029;-47
2022/01/23 03:05:13;;;;;;;68.82;40.90;;;6.10;99.90;;;;;;5013215;28;20030;-48
2022/01/23 03:10:27;;;;;;;66.85;40.00;;;5.90;99.90;;;;;;5013398;28;20122;-47
2022/01/23 03:34:19;;;;;;;67.75;41.90;;;6.00;99.90;;;;;;5012870;28;20514;-46
2022/01/23 03:36:44;;;;;;;66.32;39.50;;;6.00;99.90;;;;;;5012539;28;20025;-47
2022/01/23 03:39:11;;;;;;;63.53;38.97;;;6.00;99.90;;;;;;5013023;28;20475;-47
2022/01/23 03:41:41;;;;;;;67.40;40.25;;;6.00;99.90;;;;;;5013059;28;20435;-47
2022/01/23 03:44:09;;;;;;;63.40;40.22;;;6.00;99.90;;;;;;5012868;28;20032;-47
2022/01/23 03:49:35;;;;;;;66.72;39.47;;;5.90;99.90;;;;;;5013974;28;20115;-47
2022/01/23 03:52:11;;;;;;;70.47;42.03;;;5.90;99.90;;;;;;5012250;28;20034;-47
2022/01/23 03:54:38;;;;;;;66.68;42.20;;;6.00;99.90;;;;;;5012154;28;20105;-47
2022/01/23 03:57:06;;;;;;;68.65;42.55;;;6.00;99.90;;;;;;5012105;28;20077;-47
2022/01/23 03:59:33;;;;;;;69.20;40.83;;;6.10;99.90;;;;;;5011697;28;20610;-47
2022/01/23 04:01:59;;;;;;;67.38;40.25;;;6.10;99.90;;;;;;5011651;28;20021;-47
2022/01/23 04:06:54;;;;;;;68.05;40.70;;;6.30;99.90;;;;;;5011841;28;20029;-47
2022/01/23 04:09:19;;;;;;;68.45;41.30;;;6.40;99.90;;;;;;5013109;28;20030;-47
2022/01/23 04:11:45;;;;;;;63.70;40.85;;;6.40;99.90;;;;;;5011668;28;20333;-47
2022/01/23 04:14:14;;;;;;;66.32;40.85;;;6.40;99.90;;;;;;5012551;28;20029;-47
2022/01/23 04:59:48;;;;;;;71.53;42.83;;;6.30;99.90;;;;;;5011184;28;20088;-46
2022/01/23 05:04:46;;;;;;;64.50;39.65;;;6.40;99.90;;;;;;5011262;28;20034;-47
2022/01/23 05:07:14;;;;;;;66.90;40.05;;;6.20;99.90;;;;;;5011273;28;20018;-47
2022/01/23 05:09:39;;;;;;;69.00;40.85;;;5.90;99.90;;;;;;5011465;28;20022;-47
2022/01/23 05:12:07;;;;;;;70.20;41.33;;;5.70;99.90;;;;;;5010007;28;20144;-47
2022/01/23 05:14:38;;;;;;;71.32;41.97;;;5.80;99.90;;;;;;5011336;28;20026;-47
2022/01/23 05:17:07;;;;;;;66.47;40.63;;;5.80;99.90;;;;;;5011250;28;20037;-47
2022/01/23 05:19:33;;;;;;;68.80;40.17;;;5.70;99.90;;;;;;5011138;28;20041;-47
2022/01/23 05:24:32;;;;;;;72.82;42.42;;;5.60;99.90;;;;;;5011325;28;20033;-47
2022/01/23 05:26:59;;;;;;;72.03;41.53;;;5.60;99.90;;;;;;5011091;28;20076;-47
2022/01/23 05:29:25;;;;;;;69.53;41.75;;;5.80;99.90;;;;;;5009429;28;20054;-47
2022/01/23 05:31:52;;;;;;;68.03;41.13;;;5.70;99.90;;;;;;5010688;28;20225;-47
2022/01/23 05:34:20;;;;;;;71.63;42.40;;;5.70;99.90;;;;;;5011287;28;20040;-47
2022/01/23 05:36:46;;;;;;;73.03;41.92;;;5.80;99.90;;;;;;5011160;28;20092;-47
2022/01/23 05:39:13;;;;;;;72.55;42.22;;;5.80;99.90;;;;;;5011041;28;20029;-48
2022/01/23 05:41:39;;;;;;;77.80;45.33;;;6.00;99.90;;;;;;5010487;28;20084;-47
2022/01/23 05:44:05;;;;;;;73.30;42.92;;;6.00;99.90;;;;;;5010475;28;20049;-47
2022/01/23 05:46:30;;;;;;;70.45;42.17;;;6.10;99.90;;;;;;5010392;28;20451;-47
2022/01/23 05:48:56;;;;;;;70.78;41.70;;;6.10;99.90;;;;;;5010372;28;20109;-47
2022/01/23 05:51:21;;;;;;;70.57;41.88;;;6.00;99.90;;;;;;5010332;28;20468;-47
2022/01/23 05:53:47;;;;;;;68.47;40.85;;;6.00;99.90;;;;;;5014128;28;20037;-47
2022/01/23 05:56:13;;;;;;;69.00;41.47;;;6.00;99.90;;;;;;5014281;28;20041;-47
2022/01/23 05:58:39;;;;;;;67.60;41.65;;;6.10;99.90;;;;;;5014800;28;20022;-48
2022/01/23 06:01:05;;;;;;;73.60;43.53;;;6.00;99.90;;;;;;5014834;28;20025;-48
2022/01/23 06:03:31;;;;;;;71.93;41.00;;;6.20;99.90;;;;;;5012800;28;20021;-47
2022/01/23 06:05:56;;;;;;;71.47;42.20;;;6.20;99.90;;;;;;5012731;28;20033;-48
2022/01/23 06:08:24;;;;;;;70.47;42.35;;;6.20;99.90;;;;;;5014626;28;20030;-48
2022/01/23 06:10:57;;;;;;;70.30;41.95;;;6.20;99.90;;;;;;5012680;28;20036;-48
2022/01/23 06:13:25;;;;;;;69.45;41.22;;;6.30;99.90;;;;;;5014349;28;20033;-48
2022/01/23 06:15:51;;;;;;;72.68;40.92;;;6.30;99.90;;;;;;5013717;28;20036;-48
2022/01/23 06:18:17;;;;;;;68.75;41.03;;;6.20;99.90;;;;;;5013579;28;20103;-48
2022/01/23 06:20:43;;;;;;;70.15;41.50;;;6.10;99.90;;;;;;5013855;28;20061;-48
2022/01/23 06:23:08;;;;;;;73.13;41.90;;;6.10;99.90;;;;;;5013572;28;20034;-48
2022/01/23 06:25:36;;;;;;;72.10;42.67;;;6.10;99.90;;;;;;5013935;28;20030;-48
2022/01/23 06:28:06;;;;;;;72.38;43.55;;;6.10;99.90;;;;;;5013305;28;20066;-48
2022/01/23 06:30:36;;;;;;;71.22;43.67;;;6.10;99.90;;;;;;5013457;28;20076;-48
2022/01/23 06:33:03;;;;;;;68.47;41.47;;;6.20;99.90;;;;;;5013123;28;20076;-47
2022/01/23 06:35:29;;;;;;;70.20;40.55;;;6.10;99.90;;;;;;5013628;28;20037;-48
2022/01/23 06:37:54;;;;;;;68.45;41.35;;;6.00;99.90;;;;;;5013960;28;20026;-48
2022/01/23 06:40:20;;;;;;;72.25;42.75;;;6.00;99.90;;;;;;5013541;28;20484;-48
2022/01/23 06:42:46;;;;;;;73.78;44.35;;;6.00;99.90;;;;;;5012894;28;20018;-48
2022/01/23 06:45:11;;;;;;;75.22;43.88;;;6.10;99.90;;;;;;5012052;28;20369;-48
2022/01/23 06:47:37;;;;;;;70.30;43.08;;;6.20;99.90;;;;;;5012049;28;20030;-48
2022/01/23 06:50:04;;;;;;;70.90;42.10;;;6.20;99.90;;;;;;5012816;28;20116;-48
2022/01/23 06:52:30;;;;;;;72.25;42.97;;;6.20;99.90;;;;;;5013179;28;20037;-48
2022/01/23 06:54:55;;;;;;;71.25;42.22;;;6.10;99.90;;;;;;5013203;28;20029;-48
2022/01/23 06:57:21;;;;;;;72.57;41.97;;;6.10;99.90;;;;;;5013055;28;20026;-48
2022/01/23 06:59:47;;;;;;;70.80;42.35;;;6.10;99.90;;;;;;5012909;28;20026;-47
2022/01/23 07:02:12;;;;;;;76.90;44.50;;;6.10;99.90;;;;;;5012174;28;20041;-48
2022/01/23 07:04:38;;;;;;;72.03;42.13;;;6.10;99.90;;;;;;5012894;28;20253;-48
2022/01/23 07:07:04;;;;;;;76.70;42.25;;;6.20;99.90;;;;;;5013375;28;20578;-47
2022/01/23 07:09:29;;;;;;;71.65;43.40;;;6.10;99.90;;;;;;5012863;28;20026;-48
2022/01/23 07:11:55;;;;;;;66.40;41.67;;;6.10;99.90;;;;;;5012844;28;20487;-48
2022/01/23 07:14:21;;;;;;;70.10;41.92;;;6.10;99.90;;;;;;5013148;28;20487;-48
2022/01/23 07:16:47;;;;;;;69.38;42.20;;;6.00;99.90;;;;;;5013421;28;20041;-48
2022/01/23 07:19:13;;;;;;;63.55;37.70;;;5.90;99.90;;;;;;5013079;28;20683;-48
2022/01/23 07:21:38;;;;;;;67.60;39.42;;;5.90;99.90;;;;;;5013075;28;20084;-48
2022/01/23 07:24:04;;;;;;;66.18;40.58;;;5.90;99.90;;;;;;5013393;28;20438;-47
2022/01/23 07:26:30;;;;;;;66.88;40.45;;;5.80;99.90;;;;;;5013226;28;20033;-48
2022/01/23 07:28:59;;;;;;;64.95;39.47;;;5.70;99.90;;;;;;5012747;28;20071;-47
2022/01/23 07:34:03;;;;;;;68.95;40.97;;;5.80;99.90;;;;;;5012638;28;20053;-48
2022/01/23 07:36:28;;;;;;;66.07;40.17;;;5.80;99.90;;;;;;5012461;28;20222;-48
2022/01/23 07:38:54;;;;;;;68.22;41.00;;;5.80;99.90;;;;;;5012814;28;20041;-48
2022/01/23 07:41:20;;;;;;;69.60;41.35;;;5.70;99.90;;;;;;5012362;28;20021;-47
2022/01/23 07:43:46;;;;;;;71.38;40.97;;;5.80;99.90;;;;;;5012751;28;20753;-48
2022/01/23 07:46:11;;;;;;;67.20;40.15;;;5.80;99.90;;;;;;5011219;28;20022;-48
2022/01/23 07:48:37;;;;;;;70.03;41.50;;;5.80;99.90;;;;;;5012695;28;20026;-48
2022/01/23 07:51:03;;;;;;;76.93;42.70;;;5.80;99.90;;;;;;5012819;28;20080;-47
2022/01/23 07:53:28;;;;;;;75.43;43.08;;;5.90;99.90;;;;;;5012372;28;20037;-47
2022/01/23 07:55:54;;;;;;;75.18;44.85;;;5.90;99.90;;;;;;5013928;28;20045;-47
2022/01/23 07:58:20;;;;;;;80.07;45.38;;;5.80;99.90;;;;;;5012674;28;20021;-47
2022/01/23 08:00:47;;;;;;;72.95;42.05;;;5.70;99.90;;;;;;5012379;28;20525;-47
2022/01/23 08:03:13;;;;;;;74.40;43.40;;;5.70;99.90;;;;;;5012538;28;20026;-47
2022/01/23 08:05:39;;;;;;;74.78;44.47;;;5.60;99.90;;;;;;5012529;28;20111;-47
2022/01/23 08:08:05;;;;;;;79.10;44.95;;;5.60;99.90;;;;;;5012562;28;20073;-51
2022/01/23 08:10:31;;;;;;;80.68;47.58;;;5.70;99.90;;;;;;5012125;28;20507;-47
2022/01/23 08:12:57;;;;;;;89.25;47.05;;;5.80;99.90;;;;;;5012145;28;20101;-47
2022/01/23 08:15:23;;;;;;;87.32;50.28;;;5.80;99.90;;;;;;5010959;28;20160;-47
2022/01/23 08:17:48;;;;;;;85.28;48.22;;;5.90;99.90;;;;;;5011360;28;20080;-47
2022/01/23 08:20:14;;;;;;;76.88;45.88;;;5.90;99.90;;;;;;5011466;28;20033;-47
2022/01/23 08:22:40;;;;;;;81.45;47.15;;;5.80;99.90;;;;;;5011519;28;20380;-47
2022/01/23 08:25:06;;;;;;;78.97;47.72;;;5.80;99.90;;;;;;5011972;28;20026;-47
2022/01/23 08:27:31;;;;;;;80.38;46.38;;;5.90;99.90;;;;;;5011656;28;20511;-47
2022/01/23 08:29:58;;;;;;;79.95;46.92;;;5.80;99.90;;;;;;5011872;28;20155;-47
2022/01/23 08:32:24;;;;;;;75.57;45.50;;;5.80;99.90;;;;;;5011835;28;20029;-47
2022/01/23 08:34:50;;;;;;;78.07;46.00;;;5.80;99.90;;;;;;5011930;28;20226;-47
2022/01/23 08:37:16;;;;;;;77.28;45.50;;;5.80;99.90;;;;;;5011340;28;20086;-47
2022/01/23 08:39:42;;;;;;;80.05;47.55;;;6.00;99.90;;;;;;5010485;28;20519;-47
2022/01/23 08:42:15;;;;;;;86.88;49.55;;;6.20;99.90;;;;;;5011547;28;20105;-48
2022/01/23 08:44:41;;;;;;;85.53;47.67;;;6.10;99.90;;;;;;5012440;28;20026;-47
2022/01/23 08:47:07;;;;;;;76.35;45.50;;;6.00;99.90;;;;;;5012209;28;20365;-48
2022/01/23 08:49:36;;;;;;;80.28;44.80;;;5.90;99.90;;;;;;5011947;28;20037;-47
2022/01/23 08:52:03;;;;;;;82.20;45.17;;;5.80;99.90;;;;;;5011817;28;20475;-47
2022/01/23 08:54:28;;;;;;;84.72;48.72;;;5.70;99.90;;;;;;5012514;28;20034;-48
2022/01/23 08:56:54;;;;;;;82.75;47.90;;;5.60;99.90;;;;;;5011795;28;20545;-47
2022/01/23 08:59:20;;;;;;;77.90;44.72;;;5.60;99.90;;;;;;5011304;28;20038;-47
2022/01/23 09:01:46;;;;;;;81.85;46.45;;;5.60;99.90;;;;;;5011292;28;20067;-47
2022/01/23 09:04:15;;;;;;;84.38;49.22;;;5.50;99.90;;;;;;5011412;28;20112;-47
2022/01/23 09:06:43;;;;;;;84.90;48.70;;;5.60;99.90;;;;;;5011493;28;20088;-47
2022/01/23 09:09:15;;;;;;;86.10;49.88;;;5.70;99.90;;;;;;5011421;28;20275;-47
2022/01/23 09:11:57;;;;;;;88.38;51.35;;;6.00;99.90;;;;;;5010053;28;20026;-47
2022/01/23 09:14:23;;;;;;;84.15;50.17;;;6.00;99.90;;;;;;5010313;28;20554;-47
2022/01/23 09:16:50;;;;;;;82.50;47.45;;;5.90;99.90;;;;;;5011365;28;20026;-47
2022/01/23 09:19:20;;;;;;;83.10;47.03;;;5.90;99.90;;;;;;5011132;28;20026;-47
2022/01/23 09:21:49;;;;;;;84.03;49.80;;;5.80;99.90;;;;;;5011113;28;20044;-47
2022/01/23 09:24:18;;;;;;;83.25;48.15;;;5.70;99.90;;;;;;5011241;28;20483;-47
2022/01/23 09:26:51;;;;;;;84.20;50.60;;;5.60;99.90;;;;;;5010948;28;20434;-47
2022/01/23 09:29:24;;;;;;;84.85;48.15;;;5.70;99.90;;;;;;5010869;28;20049;-47
2022/01/23 09:31:50;;;;;;;93.50;54.25;;;5.70;99.90;;;;;;4994857;28;20088;-47
2022/01/23 09:34:22;;;;;;;92.88;53.03;;;5.70;99.90;;;;;;5011546;28;20491;-47
2022/01/23 09:36:48;;;;;;;91.38;51.65;;;5.70;99.90;;;;;;5010681;28;20033;-47
2022/01/23 09:39:15;;;;;;;90.97;52.45;;;5.80;99.90;;;;;;5011077;28;20030;-47
2022/01/23 09:41:50;;;;;;;85.45;50.35;;;5.80;99.90;;;;;;5011476;28;20018;-46
2022/01/23 09:44:17;;;;;;;84.70;49.15;;;5.90;99.90;;;;;;5011274;28;20029;-47
2022/01/23 09:46:45;;;;;;;81.45;47.67;;;5.90;99.90;;;;;;5011301;28;20030;-47
2022/01/23 09:49:15;;;;;;;88.97;51.53;;;5.90;99.90;;;;;;5010074;28;20030;-47
2022/01/23 09:51:43;;;;;;;91.05;54.92;;;5.90;99.90;;;;;;5011354;28;20430;-47
2022/01/23 09:54:16;;;;;;;79.80;46.88;;;6.00;99.90;;;;;;5011652;28;20487;-47
2022/01/23 09:56:43;;;;;;;85.35;49.67;;;6.10;99.90;;;;;;5011524;28;20023;-47
2022/01/23 09:59:15;;;;;;;83.85;48.45;;;6.00;99.90;;;;;;5011004;28;20093;-47
2022/01/23 10:01:42;;;;;;;86.03;49.85;;;6.10;99.90;;;;;;5010635;28;20072;-47
2022/01/23 10:04:09;;;;;;;79.15;46.75;;;6.10;99.90;;;;;;5011433;28;20072;-47
2022/01/23 10:06:35;;;;;;;81.85;46.50;;;6.00;99.90;;;;;;5010413;28;20026;-47
2022/01/23 10:09:02;;;;;;;80.35;46.22;;;6.00;99.90;;;;;;5010447;28;20022;-46
2022/01/23 10:11:32;;;;;;;79.68;46.83;;;5.90;99.90;;;;;;5010631;28;20034;-46
2022/01/23 10:13:58;;;;;;;81.82;50.15;;;5.80;99.90;;;;;;5009463;28;20050;-47
2022/01/23 10:16:24;;;;;;;82.20;49.20;;;5.80;99.90;;;;;;5010780;28;20064;-46
2022/01/23 10:18:50;;;;;;;86.30;50.08;;;5.80;99.90;;;;;;5011328;28;20022;-46
2022/01/23 10:21:16;;;;;;;80.30;48.35;;;5.80;99.90;;;;;;5011255;28;20053;-46
2022/01/23 10:23:42;;;;;;;82.22;48.65;;;5.90;99.90;;;;;;5011080;28;20475;-47
2022/01/23 10:26:07;;;;;;;83.55;48.78;;;5.90;99.90;;;;;;5011430;28;20494;-46
2022/01/23 10:28:35;;;;;;;82.00;48.42;;;5.90;99.90;;;;;;5010518;28;20538;-47
2022/01/23 10:31:04;;;;;;;84.45;48.38;;;6.00;99.90;;;;;;5010199;28;20353;-46
2022/01/23 10:33:35;;;;;;;79.57;47.75;;;6.10;99.90;;;;;;5010431;28;20312;-46
2022/01/23 10:36:10;;;;;;;82.10;48.25;;;6.10;99.90;;;;;;5010355;28;20034;-46
2022/01/23 10:38:57;;;;;;;79.90;49.47;;;6.10;99.90;;;;;;5012996;28;20026;-47
2022/01/23 10:50:01;;;;;;;80.50;46.83;;;6.10;99.90;;;;;;5012033;28;20034;-46
2022/01/23 10:52:32;;;;;;;78.43;43.92;;;6.20;99.90;;;;;;5014088;28;20445;-47
2022/01/23 10:55:03;;;;;;;72.60;44.42;;;6.20;99.90;;;;;;5013984;28;20088;-46
2022/01/23 10:57:44;;;;;;;72.38;42.90;;;6.30;99.90;;;;;;5014956;28;20270;-46
2022/01/23 11:00:21;;;;;;;71.53;43.38;;;6.20;99.90;;;;;;5013800;28;20025;-46
2022/01/23 11:02:47;;;;;;;72.25;41.63;;;6.20;99.90;;;;;;5013404;28;20038;-46
2022/01/23 11:05:16;;;;;;;73.05;43.65;;;6.10;99.90;;;;;;5013292;28;20261;-47
2022/01/23 11:07:45;;;;;;;73.63;43.40;;;6.20;99.90;;;;;;5014202;28;20033;-47
2022/01/23 11:10:15;;;;;;;77.70;42.45;;;6.30;99.90;;;;;;5013229;28;20053;-48
2022/01/23 11:17:59;;;;;;;74.45;43.55;;;6.30;99.90;;;;;;5012921;28;20045;-47
2022/01/23 11:20:30;;;;;;;74.65;45.20;;;6.50;99.90;;;;;;5012991;28;20092;-47
2022/01/23 11:23:24;;;;;;;74.03;44.15;;;6.50;99.90;;;;;;5011743;28;20030;-47
2022/01/23 11:25:55;;;;;;;73.93;44.05;;;6.50;99.90;;;;;;5012410;28;20407;-47
2022/01/23 11:28:40;;;;;;;77.07;45.90;;;6.60;99.90;;;;;;5012758;28;20058;-47
2022/01/23 11:31:10;;;;;;;72.38;44.17;;;6.80;99.90;;;;;;5012586;28;20085;-47
2022/01/23 11:33:36;;;;;;;71.85;43.90;;;7.00;99.90;;;;;;5013033;28;20080;-47
2022/01/23 11:36:03;;;;;;;75.88;46.78;;;7.00;99.90;;;;;;5012707;28;20030;-47
2022/01/23 11:38:29;;;;;;;101.28;59.30;;;6.90;99.90;;;;;;5012409;28;20105;-47
2022/01/23 11:55:33;;;;;;;72.07;45.10;;;7.10;99.90;;;;;;5012774;28;20036;-47
2022/01/23 11:58:00;;;;;;;72.55;44.10;;;7.20;99.90;;;;;;5010917;28;20399;-47
2022/01/23 12:00:34;;;;;;;73.68;45.45;;;7.10;99.90;;;;;;5012396;28;20076;-47
2022/01/23 12:03:14;;;;;;;72.43;43.10;;;7.20;99.90;;;;;;5010959;28;20068;-47
2022/01/23 12:05:43;;;;;;;72.60;42.92;;;7.10;99.90;;;;;;5012118;28;20073;-48
2022/01/23 12:08:24;;;;;;;67.95;41.03;;;7.10;99.90;;;;;;5011996;28;20037;-47
2022/01/23 12:11:48;;;;;;;66.43;42.92;;;7.00;99.90;;;;;;5012051;28;20030;-47
2022/01/23 12:17:00;;;;;;;70.47;41.75;;;6.60;99.90;;;;;;5012189;28;20552;-47
2022/01/23 12:19:28;;;;;;;74.47;43.22;;;6.50;99.90;;;;;;5012141;28;20565;-47
2022/01/23 12:21:58;;;;;;;69.38;41.00;;;6.40;99.90;;;;;;5012552;28;20030;-47
2022/01/23 12:24:25;;;;;;;71.00;42.25;;;6.50;99.90;;;;;;5012396;28;20430;-47
2022/01/23 12:27:28;;;;;;;70.28;41.78;;;6.50;99.90;;;;;;5012550;28;20029;-47
2022/01/23 12:30:15;;;;;;;72.13;41.30;;;6.60;99.90;;;;;;5011997;28;20050;-47
2022/01/23 12:32:42;;;;;;;71.82;41.03;;;6.60;99.90;;;;;;5011446;28;20017;-46
2022/01/23 12:35:10;;;;;;;68.63;40.85;;;6.80;99.90;;;;;;5011945;28;20029;-47
2022/01/23 12:38:02;;;;;;;69.72;41.33;;;6.70;99.90;;;;;;5011765;28;20495;-47
2022/01/23 12:40:37;;;;;;;74.25;44.88;;;6.80;99.90;;;;;;5011710;28;20041;-47
2022/01/23 12:43:12;;;;;;;76.65;43.88;;;6.70;99.90;;;;;;5011353;28;20502;-47
2022/01/23 12:45:44;;;;;;;67.70;39.90;;;6.90;99.90;;;;;;5012127;28;20021;-47
2022/01/23 12:48:25;;;;;;;74.00;41.08;;;6.80;99.90;;;;;;5011727;28;20091;-47
2022/01/23 12:50:53;;;;;;;71.47;42.38;;;6.80;99.90;;;;;;5011602;28;20522;-47
2022/01/23 12:53:19;;;;;;;67.60;39.42;;;6.80;99.90;;;;;;5011528;28;20048;-47
2022/01/23 12:56:09;;;;;;;71.10;43.42;;;6.70;99.90;;;;;;5011828;28;20193;-47
2022/01/23 12:58:35;;;;;;;71.07;41.20;;;6.50;99.90;;;;;;5011880;28;20113;-47
2022/01/23 13:01:05;;;;;;;67.57;39.88;;;6.50;99.90;;;;;;5011640;28;20022;-47
2022/01/23 13:03:31;;;;;;;74.78;43.08;;;6.60;99.90;;;;;;5011942;28;20018;-47
2022/01/23 13:05:57;;;;;;;70.63;40.60;;;6.50;99.90;;;;;;5011716;28;20018;-47
2022/01/23 13:08:28;;;;;;;74.07;42.03;;;6.60;99.90;;;;;;5011204;28;20033;-47
2022/01/23 13:13:53;;;;;;;70.68;39.78;;;6.60;99.90;;;;;;4992182;28;20038;-47
2022/01/23 13:16:28;;;;;;;67.72;39.95;;;6.70;99.90;;;;;;5011254;28;20033;-47
2022/01/23 13:30:15;;;;;;;73.50;39.90;;;6.50;99.90;;;;;;5011540;28;20373;-47
2022/01/23 13:32:47;;;;;;;72.95;41.47;;;6.50;99.90;;;;;;5010414;28;20022;-46
2022/01/23 13:35:16;;;;;;;68.15;39.15;;;6.60;99.90;;;;;;5010517;28;20018;-47
2022/01/23 13:37:46;;;;;;;73.13;39.92;;;6.60;99.90;;;;;;5011044;28;20025;-47
2022/01/23 13:40:16;;;;;;;71.13;40.88;;;6.60;99.90;;;;;;5011912;28;20092;-47
2022/01/23 14:02:18;;;;;;;67.88;39.10;;;6.80;99.90;;;;;;5010603;28;19909;-47
2022/01/23 14:04:48;;;;;;;63.40;38.70;;;6.90;99.90;;;;;;5011041;28;20505;-46
2022/01/23 14:07:25;;;;;;;65.90;38.33;;;6.90;99.90;;;;;;5010062;28;20577;-47
2022/01/23 14:09:53;;;;;;;64.95;39.00;;;7.10;99.90;;;;;;5010468;28;20081;-47
2022/01/23 14:12:20;;;;;;;64.93;39.03;;;7.10;99.90;;;;;;5011035;28;20411;-47
2022/01/23 14:15:04;;;;;;;64.15;38.92;;;7.00;99.90;;;;;;5014401;28;20622;-47
2022/01/23 14:17:35;;;;;;;64.05;37.22;;;7.00;99.90;;;;;;5014611;28;20084;-47
2022/01/23 14:20:04;;;;;;;68.35;40.90;;;6.90;99.90;;;;;;5014401;28;20105;-47
2022/01/23 14:22:33;;;;;;;68.50;40.42;;;6.90;99.90;;;;;;5013993;28;20404;-47
2022/01/23 14:25:26;;;;;;;68.85;39.63;;;7.00;99.90;;;;;;5013822;28;20018;-47
2022/01/23 14:28:04;;;;;;;69.30;39.65;;;7.00;99.90;;;;;;5012149;28;20208;-47
2022/01/23 14:30:30;;;;;;;69.78;38.40;;;6.80;99.90;;;;;;5013308;28;20026;-47
2022/01/23 14:33:06;;;;;;;68.53;39.05;;;6.80;99.90;;;;;;5014665;28;20061;-47
2022/01/23 14:35:33;;;;;;;69.95;39.28;;;6.70;99.90;;;;;;5014655;28;20101;-47
2022/01/23 14:38:16;;;;;;;70.72;40.30;;;6.70;99.90;;;;;;5013932;28;20121;-47
2022/01/23 14:40:54;;;;;;;67.63;38.80;;;6.80;99.90;;;;;;5014086;28;20064;-47
2022/01/23 14:43:20;;;;;;;67.40;39.30;;;6.80;99.90;;;;;;5014232;28;20501;-47
2022/01/23 14:45:49;;;;;;;64.00;37.10;;;6.80;99.90;;;;;;5012821;28;20112;-47
2022/01/23 14:48:16;;;;;;;71.28;39.72;;;6.70;99.90;;;;;;5014164;28;20109;-47
2022/01/23 14:50:51;;;;;;;69.07;40.38;;;6.60;99.90;;;;;;5012701;28;20057;-47
2022/01/23 14:53:19;;;;;;;71.80;39.35;;;6.40;99.90;;;;;;5014139;28;20053;-47
2022/01/23 14:55:47;;;;;;;69.60;39.42;;;6.50;99.90;;;;;;5013062;28;20092;-47
2022/01/23 14:58:18;;;;;;;64.40;37.03;;;6.60;99.90;;;;;;5013462;28;20036;-47
2022/01/23 15:00:44;;;;;;;70.35;39.80;;;6.60;99.90;;;;;;5013843;28;20026;-47
2022/01/23 15:03:09;;;;;;;72.50;39.20;;;6.50;99.90;;;;;;5013956;28;20161;-47
2022/01/23 15:05:38;;;;;;;66.70;38.42;;;6.50;99.90;;;;;;5013817;28;20030;-47
2022/01/23 15:08:07;;;;;;;71.65;40.13;;;6.50;99.90;;;;;;5013436;28;20104;-47
2022/01/23 15:10:33;;;;;;;68.72;39.67;;;6.50;99.90;;;;;;5013660;28;20495;-47
2022/01/23 15:12:59;;;;;;;72.03;39.78;;;6.40;99.90;;;;;;5013845;28;20026;-47
2022/01/23 15:15:25;;;;;;;73.18;40.47;;;6.50;99.90;;;;;;5013645;28;20092;-48
2022/01/23 15:17:51;;;;;;;73.00;41.55;;;6.60;99.90;;;;;;5013765;28;20038;-47
2022/01/23 15:20:17;;;;;;;69.78;41.72;;;6.60;99.90;;;;;;5013876;28;20018;-47
2022/01/23 15:22:44;;;;;;;70.10;39.97;;;6.70;99.90;;;;;;5013976;28;20026;-47
2022/01/23 15:25:12;;;;;;;75.00;41.92;;;6.70;99.90;;;;;;5012740;28;20072;-47
2022/01/23 15:27:38;;;;;;;69.93;39.67;;;6.60;99.90;;;;;;5012555;28;20030;-47
2022/01/23 15:30:07;;;;;;;66.85;38.92;;;6.60;99.90;;;;;;5013083;28;20030;-47
2022/01/23 15:32:32;;;;;;;71.68;42.40;;;6.70;99.90;;;;;;5013437;28;20022;-46
2022/01/23 15:34:58;;;;;;;75.45;43.33;;;6.50;99.90;;;;;;5012219;28;20025;-47
2022/01/23 15:37:23;;;;;;;68.05;40.63;;;6.50;99.90;;;;;;5013001;28;20021;-47
2022/01/23 15:39:51;;;;;;;72.93;41.75;;;6.60;99.90;;;;;;5011474;28;20030;-47
2022/01/23 15:42:17;;;;;;;70.47;40.92;;;6.60;99.90;;;;;;5011693;28;20021;-47
2022/01/23 15:44:44;;;;;;;69.30;40.67;;;6.60;99.90;;;;;;5013235;28;20037;-47
2022/01/23 15:47:09;;;;;;;98.65;56.53;;;6.60;99.90;;;;;;5013180;28;20104;-47
2022/01/23 15:49:35;;;;;;;74.97;42.63;;;6.40;99.90;;;;;;5012652;28;20123;-47
2022/01/23 15:52:03;;;;;;;98.47;53.03;;;6.40;99.90;;;;;;5012824;28;20334;-47
2022/01/23 15:54:29;;;;;;;94.88;51.03;;;6.60;99.90;;;;;;5011389;28;20076;-47
2022/01/23 15:56:56;;;;;;;90.72;50.72;;;6.70;99.90;;;;;;5012651;28;20041;-48
2022/01/23 15:59:23;;;;;;;96.35;55.22;;;6.70;99.90;;;;;;5012876;28;20037;-48
2022/01/23 16:01:49;;;;;;;90.00;52.00;;;6.60;99.90;;;;;;5012744;28;20491;-47
2022/01/23 16:04:16;;;;;;;82.97;47.45;;;6.60;99.90;;;;;;5013034;28;20025;-48
2022/01/23 16:06:42;;;;;;;82.65;46.53;;;6.70;99.90;;;;;;5012997;28;20080;-47
2022/01/23 16:09:08;;;;;;;78.72;43.08;;;6.70;99.90;;;;;;5012613;28;20384;-47
2022/01/23 16:11:34;;;;;;;66.30;37.65;;;6.80;99.90;;;;;;5012263;28;20036;-47
2022/01/23 16:14:00;;;;;;;59.13;34.95;;;6.90;99.90;;;;;;5012750;28;20030;-47
2022/01/23 16:16:26;;;;;;;56.65;31.02;;;6.80;99.90;;;;;;5012735;28;20021;-46
2022/01/23 16:18:52;;;;;;;52.85;31.02;;;6.70;99.90;;;;;;5012615;28;20435;-47
2022/01/23 16:21:19;;;;;;;52.83;31.77;;;6.40;99.90;;;;;;5013153;28;20478;-47
2022/01/23 16:23:45;;;;;;;60.80;34.95;;;6.40;99.90;;;;;;5012625;28;20076;-46